This is the latest recevied weather packets stored in our database for station/object SQ7KHZ-10. If no packets are shown the sender has not sent any weather packets the latest 1 day(s).
| Time | Temp. | Humidity | Pressure | Rain* | Wind** | Luminosity | Snow |
|---|---|---|---|---|---|---|---|
| 1778090323 | 19.44° C | 64% | 1005.2 hPa | 0 mm | - | - | - |
| 1778087887 | 21.11° C | 57% | 1005.1 hPa | 0 mm | - | - | - |
| 1778083072 | 22.78° C | 50% | 1005.2 hPa | 0 mm | - | - | - |
| 1778078250 | 23.89° C | 45% | 1005.3 hPa | 0 mm | - | - | - |
| 1778075831 | 23.89° C | 45% | 1005.5 hPa | 0 mm | - | - | - |
| 1778068584 | 22.78° C | 52% | 1005.8 hPa | 0 mm | - | - | - |
| 1778067374 | 22.78° C | 51% | 1005.7 hPa | 0 mm | - | - | - |
| 1778064943 | 21.67° C | 56% | 1005.8 hPa | 0 mm | - | - | - |
| 1778063743 | 22.22° C | 54% | 1005.7 hPa | 0 mm | - | - | - |
| 1778062532 | 22.78° C | 54% | 1005.7 hPa | 0 mm | - | - | - |
| 1778060101 | 21.67° C | 54% | 1005.6 hPa | 0 mm | - | - | - |
| 1778057684 | 21.11° C | 55% | 1005.6 hPa | 0 mm | - | - | - |
| 1778056475 | 20.56° C | 58% | 1005.6 hPa | 0 mm | - | - | - |
| 1778055263 | 20° C | 59% | 1005.6 hPa | 0 mm | - | - | - |
| 1778052852 | 19.44° C | 59% | 1005.4 hPa | 0 mm | - | - | - |
| 1778050442 | 18.89° C | 61% | 1005.2 hPa | 0 mm | - | - | - |
| 1778049232 | 17.78° C | 64% | 1005.2 hPa | 0 mm | - | - | - |
| 1778046818 | 16.67° C | 66% | 1005.1 hPa | 0 mm | - | - | - |
| 1778042007 | 10° C | 81% | 1005.4 hPa | 0 mm | - | - | - |
| 1778040794 | 9.44° C | 80% | 1005.3 hPa | 0 mm | - | - | - |
| 1778039594 | 9.44° C | 82% | 1005.3 hPa | 0 mm | - | - | - |
| 1778038394 | 8.89° C | 79% | 1005 hPa | 0 mm | - | - | - |
| 1778037182 | 9.44° C | 78% | 1005.2 hPa | 0 mm | - | - | - |
| 1778035982 | 10° C | 76% | 1005.3 hPa | 0 mm | - | - | - |
| 1778034770 | 10° C | 70% | 1005.4 hPa | 0 mm | - | - | - |
* Rain latest hour (hover to see other rain measurements)
** Current wind speed in m/s (hover to see current wind gust speed)